sensor_id;sensor_type;location;lat;lon;timestamp;P1;durP1;ratioP1;P2;durP2;ratioP2
54193;SDS011;40102;50.906;6.972;2023-05-20T00:00:22;2.78;;;1.50;;
54193;SDS011;40102;50.906;6.972;2023-05-20T00:02:48;3.50;;;1.40;;
54193;SDS011;40102;50.906;6.972;2023-05-20T00:05:13;1.95;;;1.20;;
54193;SDS011;40102;50.906;6.972;2023-05-20T00:07:39;2.40;;;1.58;;
54193;SDS011;40102;50.906;6.972;2023-05-20T00:10:05;3.92;;;1.60;;
54193;SDS011;40102;50.906;6.972;2023-05-20T00:12:30;2.97;;;1.58;;
54193;SDS011;40102;50.906;6.972;2023-05-20T00:14:59;2.60;;;1.42;;
54193;SDS011;40102;50.906;6.972;2023-05-20T00:17:25;1.70;;;1.33;;
54193;SDS011;40102;50.906;6.972;2023-05-20T00:19:52;2.97;;;1.30;;
54193;SDS011;40102;50.906;6.972;2023-05-20T00:22:18;2.58;;;1.33;;
54193;SDS011;40102;50.906;6.972;2023-05-20T00:24:43;3.70;;;1.60;;
54193;SDS011;40102;50.906;6.972;2023-05-20T00:27:08;3.60;;;1.58;;
54193;SDS011;40102;50.906;6.972;2023-05-20T00:29:34;2.67;;;1.40;;
54193;SDS011;40102;50.906;6.972;2023-05-20T00:31:59;1.83;;;1.20;;
54193;SDS011;40102;50.906;6.972;2023-05-20T00:34:25;1.77;;;1.30;;
54193;SDS011;40102;50.906;6.972;2023-05-20T00:36:50;2.55;;;1.38;;
54193;SDS011;40102;50.906;6.972;2023-05-20T00:39:16;4.93;;;1.45;;
54193;SDS011;40102;50.906;6.972;2023-05-20T00:41:41;3.08;;;1.83;;
54193;SDS011;40102;50.906;6.972;2023-05-20T00:44:06;2.13;;;1.38;;
54193;SDS011;40102;50.906;6.972;2023-05-20T00:46:32;2.08;;;1.40;;
54193;SDS011;40102;50.906;6.972;2023-05-20T00:48:58;2.45;;;1.42;;
54193;SDS011;40102;50.906;6.972;2023-05-20T00:51:23;2.03;;;1.30;;
54193;SDS011;40102;50.906;6.972;2023-05-20T00:53:49;3.15;;;1.38;;
54193;SDS011;40102;50.906;6.972;2023-05-20T00:56:15;1.85;;;1.25;;
54193;SDS011;40102;50.906;6.972;2023-05-20T00:58:41;2.33;;;1.20;;
54193;SDS011;40102;50.906;6.972;2023-05-20T01:01:07;2.60;;;1.30;;
54193;SDS011;40102;50.906;6.972;2023-05-20T01:03:32;2.25;;;1.30;;
54193;SDS011;40102;50.906;6.972;2023-05-20T01:05:58;1.25;;;1.10;;
54193;SDS011;40102;50.906;6.972;2023-05-20T01:08:25;2.25;;;1.20;;
54193;SDS011;40102;50.906;6.972;2023-05-20T01:10:54;2.20;;;1.50;;
54193;SDS011;40102;50.906;6.972;2023-05-20T01:13:30;1.38;;;1.13;;
54193;SDS011;40102;50.906;6.972;2023-05-20T01:16:01;2.28;;;1.48;;
54193;SDS011;40102;50.906;6.972;2023-05-20T01:18:28;1.67;;;1.10;;
54193;SDS011;40102;50.906;6.972;2023-05-20T01:20:55;2.85;;;1.60;;
54193;SDS011;40102;50.906;6.972;2023-05-20T01:23:31;1.50;;;1.00;;
54193;SDS011;40102;50.906;6.972;2023-05-20T01:25:57;1.92;;;1.38;;
54193;SDS011;40102;50.906;6.972;2023-05-20T01:28:22;1.80;;;1.15;;
54193;SDS011;40102;50.906;6.972;2023-05-20T01:37:31;1.75;;;1.05;;
54193;SDS011;40102;50.906;6.972;2023-05-20T01:40:01;2.95;;;1.30;;
54193;SDS011;40102;50.906;6.972;2023-05-20T01:42:29;1.30;;;1.08;;
54193;SDS011;40102;50.906;6.972;2023-05-20T01:44:54;2.35;;;1.30;;
54193;SDS011;40102;50.906;6.972;2023-05-20T01:47:20;2.78;;;1.20;;
54193;SDS011;40102;50.906;6.972;2023-05-20T01:49:45;1.67;;;1.10;;
54193;SDS011;40102;50.906;6.972;2023-05-20T01:52:11;1.70;;;1.10;;
54193;SDS011;40102;50.906;6.972;2023-05-20T01:54:37;2.30;;;1.10;;
54193;SDS011;40102;50.906;6.972;2023-05-20T01:57:03;2.67;;;1.10;;
54193;SDS011;40102;50.906;6.972;2023-05-20T01:59:28;2.10;;;1.20;;
54193;SDS011;40102;50.906;6.972;2023-05-20T02:01:56;2.65;;;1.23;;
54193;SDS011;40102;50.906;6.972;2023-05-20T02:04:22;1.88;;;1.00;;
54193;SDS011;40102;50.906;6.972;2023-05-20T02:06:47;2.30;;;1.20;;
54193;SDS011;40102;50.906;6.972;2023-05-20T02:09:16;1.50;;;1.10;;
54193;SDS011;40102;50.906;6.972;2023-05-20T02:11:42;1.38;;;0.98;;
54193;SDS011;40102;50.906;6.972;2023-05-20T02:14:07;2.17;;;1.50;;
54193;SDS011;40102;50.906;6.972;2023-05-20T02:16:33;2.25;;;1.20;;
54193;SDS011;40102;50.906;6.972;2023-05-20T02:18:58;3.30;;;1.50;;
54193;SDS011;40102;50.906;6.972;2023-05-20T02:21:24;1.23;;;1.00;;
54193;SDS011;40102;50.906;6.972;2023-05-20T02:23:50;1.58;;;1.20;;
54193;SDS011;40102;50.906;6.972;2023-05-20T02:26:15;3.13;;;1.30;;
54193;SDS011;40102;50.906;6.972;2023-05-20T02:28:41;1.70;;;1.13;;
54193;SDS011;40102;50.906;6.972;2023-05-20T02:31:10;4.28;;;1.20;;
54193;SDS011;40102;50.906;6.972;2023-05-20T02:33:36;2.83;;;1.33;;
54193;SDS011;40102;50.906;6.972;2023-05-20T02:36:01;2.58;;;1.33;;
54193;SDS011;40102;50.906;6.972;2023-05-20T02:38:27;2.03;;;1.27;;
54193;SDS011;40102;50.906;6.972;2023-05-20T02:40:53;2.03;;;1.15;;
54193;SDS011;40102;50.906;6.972;2023-05-20T02:43:19;1.60;;;1.10;;
54193;SDS011;40102;50.906;6.972;2023-05-20T02:45:45;3.60;;;1.40;;
54193;SDS011;40102;50.906;6.972;2023-05-20T02:48:13;3.38;;;1.35;;
54193;SDS011;40102;50.906;6.972;2023-05-20T02:50:40;2.17;;;1.35;;
54193;SDS011;40102;50.906;6.972;2023-05-20T02:53:05;2.85;;;1.45;;
54193;SDS011;40102;50.906;6.972;2023-05-20T02:55:33;1.92;;;1.20;;
54193;SDS011;40102;50.906;6.972;2023-05-20T02:57:59;2.20;;;1.35;;
54193;SDS011;40102;50.906;6.972;2023-05-20T03:00:24;1.45;;;1.30;;
54193;SDS011;40102;50.906;6.972;2023-05-20T03:02:52;2.25;;;1.20;;
54193;SDS011;40102;50.906;6.972;2023-05-20T03:05:17;1.95;;;1.35;;
54193;SDS011;40102;50.906;6.972;2023-05-20T03:07:43;2.72;;;1.48;;
54193;SDS011;40102;50.906;6.972;2023-05-20T03:10:10;2.83;;;1.23;;
54193;SDS011;40102;50.906;6.972;2023-05-20T03:12:35;1.52;;;1.00;;
54193;SDS011;40102;50.906;6.972;2023-05-20T03:15:01;2.13;;;1.17;;
54193;SDS011;40102;50.906;6.972;2023-05-20T03:17:26;1.85;;;1.25;;
54193;SDS011;40102;50.906;6.972;2023-05-20T03:19:51;2.00;;;1.23;;
54193;SDS011;40102;50.906;6.972;2023-05-20T03:22:17;3.75;;;1.20;;
54193;SDS011;40102;50.906;6.972;2023-05-20T03:24:42;1.55;;;1.15;;
54193;SDS011;40102;50.906;6.972;2023-05-20T03:27:08;2.03;;;1.17;;
54193;SDS011;40102;50.906;6.972;2023-05-20T03:29:33;1.75;;;1.17;;
54193;SDS011;40102;50.906;6.972;2023-05-20T03:31:59;1.38;;;1.20;;
54193;SDS011;40102;50.906;6.972;2023-05-20T03:34:24;2.88;;;1.15;;
54193;SDS011;40102;50.906;6.972;2023-05-20T03:36:52;2.00;;;1.35;;
54193;SDS011;40102;50.906;6.972;2023-05-20T03:39:17;2.22;;;1.23;;
54193;SDS011;40102;50.906;6.972;2023-05-20T03:41:42;2.33;;;1.30;;
54193;SDS011;40102;50.906;6.972;2023-05-20T03:44:08;3.03;;;1.38;;
54193;SDS011;40102;50.906;6.972;2023-05-20T03:46:33;1.52;;;1.20;;
54193;SDS011;40102;50.906;6.972;2023-05-20T03:48:59;1.88;;;1.30;;
54193;SDS011;40102;50.906;6.972;2023-05-20T03:51:26;1.85;;;1.08;;
54193;SDS011;40102;50.906;6.972;2023-05-20T03:53:52;1.95;;;1.20;;
54193;SDS011;40102;50.906;6.972;2023-05-20T03:56:17;1.70;;;1.30;;
54193;SDS011;40102;50.906;6.972;2023-05-20T03:58:43;2.00;;;1.30;;
54193;SDS011;40102;50.906;6.972;2023-05-20T04:01:08;1.58;;;1.20;;
54193;SDS011;40102;50.906;6.972;2023-05-20T04:03:37;1.67;;;1.40;;
54193;SDS011;40102;50.906;6.972;2023-05-20T04:06:02;2.25;;;1.33;;
54193;SDS011;40102;50.906;6.972;2023-05-20T04:08:28;2.40;;;1.30;;
54193;SDS011;40102;50.906;6.972;2023-05-20T04:10:54;2.63;;;1.30;;
54193;SDS011;40102;50.906;6.972;2023-05-20T04:13:23;2.03;;;1.30;;
54193;SDS011;40102;50.906;6.972;2023-05-20T04:15:50;2.28;;;1.42;;
54193;SDS011;40102;50.906;6.972;2023-05-20T04:18:17;2.72;;;1.58;;
54193;SDS011;40102;50.906;6.972;2023-05-20T04:20:42;2.08;;;1.25;;
54193;SDS011;40102;50.906;6.972;2023-05-20T04:23:08;1.98;;;1.23;;
54193;SDS011;40102;50.906;6.972;2023-05-20T04:25:34;2.45;;;1.30;;
54193;SDS011;40102;50.906;6.972;2023-05-20T04:28:00;2.13;;;1.45;;
54193;SDS011;40102;50.906;6.972;2023-05-20T04:30:25;2.03;;;1.30;;
54193;SDS011;40102;50.906;6.972;2023-05-20T04:32:51;2.03;;;1.45;;
54193;SDS011;40102;50.906;6.972;2023-05-20T04:35:16;1.65;;;1.17;;
54193;SDS011;40102;50.906;6.972;2023-05-20T04:37:42;2.03;;;1.35;;
54193;SDS011;40102;50.906;6.972;2023-05-20T04:40:17;2.58;;;1.20;;
54193;SDS011;40102;50.906;6.972;2023-05-20T04:42:43;2.70;;;1.25;;
54193;SDS011;40102;50.906;6.972;2023-05-20T04:45:08;2.83;;;1.50;;
54193;SDS011;40102;50.906;6.972;2023-05-20T04:47:34;1.70;;;1.23;;
54193;SDS011;40102;50.906;6.972;2023-05-20T04:50:03;2.65;;;1.55;;
54193;SDS011;40102;50.906;6.972;2023-05-20T04:52:34;4.07;;;1.40;;
54193;SDS011;40102;50.906;6.972;2023-05-20T04:55:04;2.60;;;1.48;;
54193;SDS011;40102;50.906;6.972;2023-05-20T04:57:32;3.45;;;1.67;;
54193;SDS011;40102;50.906;6.972;2023-05-20T04:59:58;4.25;;;1.70;;
54193;SDS011;40102;50.906;6.972;2023-05-20T05:02:24;2.28;;;1.50;;
54193;SDS011;40102;50.906;6.972;2023-05-20T05:04:49;2.08;;;1.48;;
54193;SDS011;40102;50.906;6.972;2023-05-20T05:07:15;2.00;;;1.65;;
54193;SDS011;40102;50.906;6.972;2023-05-20T05:09:40;2.35;;;1.50;;
54193;SDS011;40102;50.906;6.972;2023-05-20T05:12:05;1.70;;;1.40;;
54193;SDS011;40102;50.906;6.972;2023-05-20T05:14:31;1.92;;;1.50;;
54193;SDS011;40102;50.906;6.972;2023-05-20T05:16:56;1.80;;;1.40;;
54193;SDS011;40102;50.906;6.972;2023-05-20T05:19:22;2.45;;;1.40;;
54193;SDS011;40102;50.906;6.972;2023-05-20T05:21:47;2.65;;;1.60;;
54193;SDS011;40102;50.906;6.972;2023-05-20T05:24:12;2.30;;;1.58;;
54193;SDS011;40102;50.906;6.972;2023-05-20T05:26:38;2.67;;;1.77;;
54193;SDS011;40102;50.906;6.972;2023-05-20T05:29:03;5.07;;;1.77;;
54193;SDS011;40102;50.906;6.972;2023-05-20T05:31:29;4.78;;;1.67;;
54193;SDS011;40102;50.906;6.972;2023-05-20T05:33:54;1.85;;;1.50;;
54193;SDS011;40102;50.906;6.972;2023-05-20T05:36:19;3.15;;;1.85;;
54193;SDS011;40102;50.906;6.972;2023-05-20T05:38:45;3.53;;;1.67;;
54193;SDS011;40102;50.906;6.972;2023-05-20T05:41:10;2.50;;;1.73;;
54193;SDS011;40102;50.906;6.972;2023-05-20T05:43:36;2.88;;;1.73;;
54193;SDS011;40102;50.906;6.972;2023-05-20T05:46:01;2.22;;;1.60;;
54193;SDS011;40102;50.906;6.972;2023-05-20T05:48:27;3.30;;;1.85;;
54193;SDS011;40102;50.906;6.972;2023-05-20T05:50:52;3.08;;;1.95;;
54193;SDS011;40102;50.906;6.972;2023-05-20T05:53:17;2.10;;;1.70;;
54193;SDS011;40102;50.906;6.972;2023-05-20T05:55:44;2.55;;;1.75;;
54193;SDS011;40102;50.906;6.972;2023-05-20T05:58:11;2.70;;;1.63;;
54193;SDS011;40102;50.906;6.972;2023-05-20T06:00:37;1.98;;;1.50;;
54193;SDS011;40102;50.906;6.972;2023-05-20T06:03:02;2.53;;;1.70;;
54193;SDS011;40102;50.906;6.972;2023-05-20T06:05:28;2.63;;;1.60;;
54193;SDS011;40102;50.906;6.972;2023-05-20T06:07:55;2.78;;;1.80;;
54193;SDS011;40102;50.906;6.972;2023-05-20T06:10:20;5.40;;;1.90;;
54193;SDS011;40102;50.906;6.972;2023-05-20T06:12:46;2.65;;;1.48;;
54193;SDS011;40102;50.906;6.972;2023-05-20T06:15:11;3.60;;;1.90;;
54193;SDS011;40102;50.906;6.972;2023-05-20T06:17:37;2.47;;;1.65;;
54193;SDS011;40102;50.906;6.972;2023-05-20T06:20:02;3.25;;;1.70;;
54193;SDS011;40102;50.906;6.972;2023-05-20T06:22:28;3.25;;;2.00;;
54193;SDS011;40102;50.906;6.972;2023-05-20T06:24:54;2.78;;;2.10;;
54193;SDS011;40102;50.906;6.972;2023-05-20T06:27:20;3.47;;;1.63;;
54193;SDS011;40102;50.906;6.972;2023-05-20T06:29:46;2.30;;;1.70;;
54193;SDS011;40102;50.906;6.972;2023-05-20T06:32:11;2.72;;;1.75;;
54193;SDS011;40102;50.906;6.972;2023-05-20T06:34:36;2.88;;;1.90;;
54193;SDS011;40102;50.906;6.972;2023-05-20T06:37:02;2.50;;;1.60;;
54193;SDS011;40102;50.906;6.972;2023-05-20T06:39:27;2.75;;;1.90;;
54193;SDS011;40102;50.906;6.972;2023-05-20T06:41:53;2.15;;;1.70;;
54193;SDS011;40102;50.906;6.972;2023-05-20T06:44:18;1.88;;;1.60;;
54193;SDS011;40102;50.906;6.972;2023-05-20T06:46:44;2.58;;;1.80;;
54193;SDS011;40102;50.906;6.972;2023-05-20T06:49:09;2.30;;;1.65;;
54193;SDS011;40102;50.906;6.972;2023-05-20T06:51:34;2.83;;;1.80;;
54193;SDS011;40102;50.906;6.972;2023-05-20T06:54:00;2.45;;;1.67;;
54193;SDS011;40102;50.906;6.972;2023-05-20T06:56:25;1.80;;;1.50;;
54193;SDS011;40102;50.906;6.972;2023-05-20T06:58:50;2.92;;;1.75;;
54193;SDS011;40102;50.906;6.972;2023-05-20T07:01:16;2.17;;;1.60;;
54193;SDS011;40102;50.906;6.972;2023-05-20T07:03:41;2.40;;;1.73;;
54193;SDS011;40102;50.906;6.972;2023-05-20T07:06:08;2.40;;;1.60;;
54193;SDS011;40102;50.906;6.972;2023-05-20T07:08:33;2.13;;;1.73;;
54193;SDS011;40102;50.906;6.972;2023-05-20T07:10:59;2.83;;;1.85;;
54193;SDS011;40102;50.906;6.972;2023-05-20T07:13:24;2.05;;;1.58;;
54193;SDS011;40102;50.906;6.972;2023-05-20T07:15:50;3.03;;;1.55;;
54193;SDS011;40102;50.906;6.972;2023-05-20T07:18:16;2.53;;;1.60;;
54193;SDS011;40102;50.906;6.972;2023-05-20T07:20:41;2.03;;;1.50;;
54193;SDS011;40102;50.906;6.972;2023-05-20T07:23:08;4.05;;;1.88;;
54193;SDS011;40102;50.906;6.972;2023-05-20T07:25:33;2.25;;;1.80;;
54193;SDS011;40102;50.906;6.972;2023-05-20T07:27:58;2.55;;;1.60;;
54193;SDS011;40102;50.906;6.972;2023-05-20T07:30:24;1.83;;;1.55;;
54193;SDS011;40102;50.906;6.972;2023-05-20T07:32:50;2.83;;;1.80;;
54193;SDS011;40102;50.906;6.972;2023-05-20T07:35:16;3.35;;;2.00;;
54193;SDS011;40102;50.906;6.972;2023-05-20T07:37:41;4.35;;;1.70;;
54193;SDS011;40102;50.906;6.972;2023-05-20T07:40:07;2.78;;;1.80;;
54193;SDS011;40102;50.906;6.972;2023-05-20T07:42:33;2.00;;;1.73;;
54193;SDS011;40102;50.906;6.972;2023-05-20T07:44:59;2.40;;;2.10;;
54193;SDS011;40102;50.906;6.972;2023-05-20T07:47:24;3.25;;;2.08;;
54193;SDS011;40102;50.906;6.972;2023-05-20T07:49:50;3.55;;;2.10;;
54193;SDS011;40102;50.906;6.972;2023-05-20T07:52:15;2.97;;;1.90;;
54193;SDS011;40102;50.906;6.972;2023-05-20T07:54:43;4.97;;;1.90;;
54193;SDS011;40102;50.906;6.972;2023-05-20T07:57:09;2.13;;;1.80;;
54193;SDS011;40102;50.906;6.972;2023-05-20T07:59:34;3.28;;;1.80;;
54193;SDS011;40102;50.906;6.972;2023-05-20T08:02:00;2.65;;;2.13;;
54193;SDS011;40102;50.906;6.972;2023-05-20T08:04:25;3.20;;;2.05;;
54193;SDS011;40102;50.906;6.972;2023-05-20T08:06:51;3.17;;;1.60;;
54193;SDS011;40102;50.906;6.972;2023-05-20T08:09:17;4.15;;;1.73;;
54193;SDS011;40102;50.906;6.972;2023-05-20T08:11:43;4.35;;;1.85;;
54193;SDS011;40102;50.906;6.972;2023-05-20T08:14:09;2.10;;;1.48;;
54193;SDS011;40102;50.906;6.972;2023-05-20T08:16:35;2.28;;;1.63;;
54193;SDS011;40102;50.906;6.972;2023-05-20T08:19:01;2.53;;;1.63;;
54193;SDS011;40102;50.906;6.972;2023-05-20T08:21:29;3.22;;;1.75;;
54193;SDS011;40102;50.906;6.972;2023-05-20T08:23:55;2.55;;;1.50;;
54193;SDS011;40102;50.906;6.972;2023-05-20T08:26:20;3.13;;;1.70;;
54193;SDS011;40102;50.906;6.972;2023-05-20T08:28:46;3.13;;;1.73;;
54193;SDS011;40102;50.906;6.972;2023-05-20T08:31:12;3.00;;;1.90;;
54193;SDS011;40102;50.906;6.972;2023-05-20T08:33:38;2.65;;;1.50;;
54193;SDS011;40102;50.906;6.972;2023-05-20T08:36:03;2.95;;;2.08;;
54193;SDS011;40102;50.906;6.972;2023-05-20T08:38:29;2.78;;;2.10;;
54193;SDS011;40102;50.906;6.972;2023-05-20T08:40:55;5.78;;;1.88;;
54193;SDS011;40102;50.906;6.972;2023-05-20T08:43:21;2.13;;;1.83;;
54193;SDS011;40102;50.906;6.972;2023-05-20T08:45:48;3.30;;;1.90;;
54193;SDS011;40102;50.906;6.972;2023-05-20T08:48:16;3.15;;;2.00;;
54193;SDS011;40102;50.906;6.972;2023-05-20T08:50:43;3.25;;;1.88;;
54193;SDS011;40102;50.906;6.972;2023-05-20T08:53:13;3.25;;;1.90;;
54193;SDS011;40102;50.906;6.972;2023-05-20T08:55:42;2.38;;;2.10;;
54193;SDS011;40102;50.906;6.972;2023-05-20T08:58:10;3.50;;;2.15;;
54193;SDS011;40102;50.906;6.972;2023-05-20T09:00:36;4.05;;;2.10;;
54193;SDS011;40102;50.906;6.972;2023-05-20T09:03:03;4.38;;;1.90;;
54193;SDS011;40102;50.906;6.972;2023-05-20T09:05:29;2.60;;;1.98;;
54193;SDS011;40102;50.906;6.972;2023-05-20T09:08:05;3.35;;;2.40;;
54193;SDS011;40102;50.906;6.972;2023-05-20T09:10:31;3.15;;;2.17;;
54193;SDS011;40102;50.906;6.972;2023-05-20T09:12:59;2.53;;;1.90;;
54193;SDS011;40102;50.906;6.972;2023-05-20T09:15:25;5.20;;;2.08;;
54193;SDS011;40102;50.906;6.972;2023-05-20T09:17:51;6.85;;;1.83;;
54193;SDS011;40102;50.906;6.972;2023-05-20T09:20:16;2.03;;;1.85;;
54193;SDS011;40102;50.906;6.972;2023-05-20T09:22:42;3.45;;;1.95;;
54193;SDS011;40102;50.906;6.972;2023-05-20T09:25:07;3.00;;;2.05;;
54193;SDS011;40102;50.906;6.972;2023-05-20T09:27:35;3.55;;;2.03;;
54193;SDS011;40102;50.906;6.972;2023-05-20T09:30:01;2.88;;;2.03;;
54193;SDS011;40102;50.906;6.972;2023-05-20T09:34:57;3.63;;;1.92;;
54193;SDS011;40102;50.906;6.972;2023-05-20T09:37:23;2.40;;;1.90;;
54193;SDS011;40102;50.906;6.972;2023-05-20T09:39:55;5.25;;;2.28;;
54193;SDS011;40102;50.906;6.972;2023-05-20T09:42:27;2.95;;;2.10;;
54193;SDS011;40102;50.906;6.972;2023-05-20T09:44:59;4.38;;;2.30;;
54193;SDS011;40102;50.906;6.972;2023-05-20T09:47:28;3.80;;;2.00;;
54193;SDS011;40102;50.906;6.972;2023-05-20T09:49:54;2.70;;;2.00;;
54193;SDS011;40102;50.906;6.972;2023-05-20T09:52:20;3.47;;;2.00;;
54193;SDS011;40102;50.906;6.972;2023-05-20T09:54:47;3.17;;;2.10;;
54193;SDS011;40102;50.906;6.972;2023-05-20T09:57:14;2.33;;;1.88;;
54193;SDS011;40102;50.906;6.972;2023-05-20T09:59:40;2.60;;;1.92;;
54193;SDS011;40102;50.906;6.972;2023-05-20T10:02:06;3.67;;;2.03;;
54193;SDS011;40102;50.906;6.972;2023-05-20T10:04:33;5.03;;;2.30;;
54193;SDS011;40102;50.906;6.972;2023-05-20T10:16:24;2.80;;;2.00;;
54193;SDS011;40102;50.906;6.972;2023-05-20T10:18:46;3.25;;;2.00;;
54193;SDS011;40102;50.906;6.972;2023-05-20T10:21:23;2.63;;;1.92;;
54193;SDS011;40102;50.906;6.972;2023-05-20T10:23:49;2.58;;;1.90;;
54193;SDS011;40102;50.906;6.972;2023-05-20T10:26:15;3.35;;;2.50;;
54193;SDS011;40102;50.906;6.972;2023-05-20T10:28:41;3.10;;;2.10;;
54193;SDS011;40102;50.906;6.972;2023-05-20T10:31:19;2.53;;;1.92;;
54193;SDS011;40102;50.906;6.972;2023-05-20T10:33:46;2.90;;;2.00;;
54193;SDS011;40102;50.906;6.972;2023-05-20T10:36:24;3.58;;;2.17;;
54193;SDS011;40102;50.906;6.972;2023-05-20T10:38:54;5.03;;;2.13;;
54193;SDS011;40102;50.906;6.972;2023-05-20T10:41:26;2.70;;;1.77;;
54193;SDS011;40102;50.906;6.972;2023-05-20T10:44:05;4.55;;;2.35;;
54193;SDS011;40102;50.906;6.972;2023-05-20T10:46:31;4.78;;;2.50;;
54193;SDS011;40102;50.906;6.972;2023-05-20T10:48:57;3.05;;;2.15;;
54193;SDS011;40102;50.906;6.972;2023-05-20T10:51:24;4.00;;;2.42;;
54193;SDS011;40102;50.906;6.972;2023-05-20T10:53:53;3.03;;;2.30;;
54193;SDS011;40102;50.906;6.972;2023-05-20T10:56:20;3.80;;;2.33;;
54193;SDS011;40102;50.906;6.972;2023-05-20T10:58:47;4.90;;;2.30;;
54193;SDS011;40102;50.906;6.972;2023-05-20T11:01:14;3.00;;;2.35;;
54193;SDS011;40102;50.906;6.972;2023-05-20T11:03:40;2.65;;;2.28;;
54193;SDS011;40102;50.906;6.972;2023-05-20T11:06:13;3.28;;;2.28;;
54193;SDS011;40102;50.906;6.972;2023-05-20T11:08:40;4.35;;;2.67;;
54193;SDS011;40102;50.906;6.972;2023-05-20T11:11:06;2.85;;;2.05;;
54193;SDS011;40102;50.906;6.972;2023-05-20T11:13:31;2.83;;;2.10;;
54193;SDS011;40102;50.906;6.972;2023-05-20T11:15:57;3.00;;;2.25;;
54193;SDS011;40102;50.906;6.972;2023-05-20T11:18:25;3.80;;;2.25;;
54193;SDS011;40102;50.906;6.972;2023-05-20T11:20:54;6.63;;;2.40;;
54193;SDS011;40102;50.906;6.972;2023-05-20T11:23:19;2.70;;;2.28;;
54193;SDS011;40102;50.906;6.972;2023-05-20T11:25:48;3.03;;;2.40;;
54193;SDS011;40102;50.906;6.972;2023-05-20T11:28:14;2.92;;;2.28;;
54193;SDS011;40102;50.906;6.972;2023-05-20T11:30:43;3.28;;;2.28;;
54193;SDS011;40102;50.906;6.972;2023-05-20T11:33:13;3.42;;;2.25;;
54193;SDS011;40102;50.906;6.972;2023-05-20T11:35:52;8.02;;;2.50;;
54193;SDS011;40102;50.906;6.972;2023-05-20T11:38:19;3.92;;;2.55;;
54193;SDS011;40102;50.906;6.972;2023-05-20T11:40:46;5.25;;;2.35;;
54193;SDS011;40102;50.906;6.972;2023-05-20T11:43:15;3.05;;;2.50;;
54193;SDS011;40102;50.906;6.972;2023-05-20T11:45:41;3.70;;;2.47;;
54193;SDS011;40102;50.906;6.972;2023-05-20T11:48:07;4.60;;;2.55;;
54193;SDS011;40102;50.906;6.972;2023-05-20T11:50:34;4.22;;;2.70;;
54193;SDS011;40102;50.906;6.972;2023-05-20T11:53:03;4.53;;;2.55;;
54193;SDS011;40102;50.906;6.972;2023-05-20T11:55:30;3.53;;;2.58;;
54193;SDS011;40102;50.906;6.972;2023-05-20T11:57:57;5.78;;;2.83;;
54193;SDS011;40102;50.906;6.972;2023-05-20T12:00:24;2.90;;;2.33;;
54193;SDS011;40102;50.906;6.972;2023-05-20T12:02:52;4.13;;;2.50;;
54193;SDS011;40102;50.906;6.972;2023-05-20T12:05:18;3.97;;;2.67;;
54193;SDS011;40102;50.906;6.972;2023-05-20T12:07:43;3.80;;;2.40;;
54193;SDS011;40102;50.906;6.972;2023-05-20T12:10:09;3.70;;;2.35;;
54193;SDS011;40102;50.906;6.972;2023-05-20T12:12:35;3.08;;;2.33;;
54193;SDS011;40102;50.906;6.972;2023-05-20T12:15:03;4.72;;;2.60;;
54193;SDS011;40102;50.906;6.972;2023-05-20T12:17:30;3.72;;;2.75;;
54193;SDS011;40102;50.906;6.972;2023-05-20T12:20:09;7.70;;;2.63;;
54193;SDS011;40102;50.906;6.972;2023-05-20T12:22:35;3.03;;;2.47;;
54193;SDS011;40102;50.906;6.972;2023-05-20T12:25:00;3.03;;;2.60;;
54193;SDS011;40102;50.906;6.972;2023-05-20T12:27:26;4.32;;;3.03;;
54193;SDS011;40102;50.906;6.972;2023-05-20T12:29:54;3.58;;;2.78;;
54193;SDS011;40102;50.906;6.972;2023-05-20T12:32:20;3.60;;;2.55;;
54193;SDS011;40102;50.906;6.972;2023-05-20T12:34:47;3.08;;;2.50;;
54193;SDS011;40102;50.906;6.972;2023-05-20T12:37:12;4.47;;;2.70;;
54193;SDS011;40102;50.906;6.972;2023-05-20T12:39:38;3.58;;;3.00;;
54193;SDS011;40102;50.906;6.972;2023-05-20T12:42:03;3.78;;;2.53;;
54193;SDS011;40102;50.906;6.972;2023-05-20T12:44:29;4.00;;;2.85;;
54193;SDS011;40102;50.906;6.972;2023-05-20T12:46:54;4.75;;;2.83;;
54193;SDS011;40102;50.906;6.972;2023-05-20T12:49:20;3.97;;;2.78;;
54193;SDS011;40102;50.906;6.972;2023-05-20T12:51:45;3.63;;;2.58;;
54193;SDS011;40102;50.906;6.972;2023-05-20T12:54:11;3.90;;;3.05;;
54193;SDS011;40102;50.906;6.972;2023-05-20T12:56:36;4.85;;;2.90;;
54193;SDS011;40102;50.906;6.972;2023-05-20T12:59:02;3.10;;;2.40;;
54193;SDS011;40102;50.906;6.972;2023-05-20T13:01:27;4.70;;;2.42;;
54193;SDS011;40102;50.906;6.972;2023-05-20T13:03:53;3.58;;;3.05;;
54193;SDS011;40102;50.906;6.972;2023-05-20T13:06:19;4.25;;;2.92;;
54193;SDS011;40102;50.906;6.972;2023-05-20T13:08:44;4.28;;;3.10;;
54193;SDS011;40102;50.906;6.972;2023-05-20T13:11:10;3.63;;;2.50;;
54193;SDS011;40102;50.906;6.972;2023-05-20T13:13:35;3.20;;;2.83;;
54193;SDS011;40102;50.906;6.972;2023-05-20T13:16:01;3.15;;;2.58;;
54193;SDS011;40102;50.906;6.972;2023-05-20T13:18:26;3.25;;;2.67;;
54193;SDS011;40102;50.906;6.972;2023-05-20T13:20:52;3.58;;;2.60;;
54193;SDS011;40102;50.906;6.972;2023-05-20T13:23:17;3.10;;;2.60;;
54193;SDS011;40102;50.906;6.972;2023-05-20T13:25:43;3.22;;;2.90;;
54193;SDS011;40102;50.906;6.972;2023-05-20T13:28:09;6.63;;;3.13;;
54193;SDS011;40102;50.906;6.972;2023-05-20T13:30:34;3.25;;;2.65;;
54193;SDS011;40102;50.906;6.972;2023-05-20T13:33:00;3.65;;;2.75;;
54193;SDS011;40102;50.906;6.972;2023-05-20T13:35:25;3.67;;;2.30;;
54193;SDS011;40102;50.906;6.972;2023-05-20T13:37:50;3.65;;;2.72;;
54193;SDS011;40102;50.906;6.972;2023-05-20T13:40:16;3.80;;;2.72;;
54193;SDS011;40102;50.906;6.972;2023-05-20T13:42:41;4.97;;;3.03;;
54193;SDS011;40102;50.906;6.972;2023-05-20T13:45:08;4.28;;;2.90;;
54193;SDS011;40102;50.906;6.972;2023-05-20T13:47:33;4.70;;;2.70;;
54193;SDS011;40102;50.906;6.972;2023-05-20T13:49:59;5.20;;;2.63;;
54193;SDS011;40102;50.906;6.972;2023-05-20T13:52:24;3.10;;;2.60;;
54193;SDS011;40102;50.906;6.972;2023-05-20T13:54:50;4.00;;;2.50;;
54193;SDS011;40102;50.906;6.972;2023-05-20T13:57:15;4.15;;;2.80;;
54193;SDS011;40102;50.906;6.972;2023-05-20T13:59:41;4.15;;;2.88;;
54193;SDS011;40102;50.906;6.972;2023-05-20T14:02:06;4.38;;;2.80;;
54193;SDS011;40102;50.906;6.972;2023-05-20T14:04:32;5.88;;;3.00;;
54193;SDS011;40102;50.906;6.972;2023-05-20T14:07:03;5.32;;;2.72;;
54193;SDS011;40102;50.906;6.972;2023-05-20T14:09:29;3.92;;;3.05;;
54193;SDS011;40102;50.906;6.972;2023-05-20T14:11:55;4.53;;;2.97;;
54193;SDS011;40102;50.906;6.972;2023-05-20T14:14:21;3.72;;;2.78;;
54193;SDS011;40102;50.906;6.972;2023-05-20T14:16:46;3.35;;;2.53;;
54193;SDS011;40102;50.906;6.972;2023-05-20T14:19:12;4.18;;;3.15;;
54193;SDS011;40102;50.906;6.972;2023-05-20T14:21:37;4.38;;;3.05;;
54193;SDS011;40102;50.906;6.972;2023-05-20T14:24:02;3.35;;;2.72;;
54193;SDS011;40102;50.906;6.972;2023-05-20T14:26:28;4.90;;;2.75;;
54193;SDS011;40102;50.906;6.972;2023-05-20T14:28:53;5.40;;;3.08;;
54193;SDS011;40102;50.906;6.972;2023-05-20T14:31:19;3.85;;;2.90;;
54193;SDS011;40102;50.906;6.972;2023-05-20T14:33:44;4.05;;;2.40;;
54193;SDS011;40102;50.906;6.972;2023-05-20T14:36:10;3.67;;;2.55;;
54193;SDS011;40102;50.906;6.972;2023-05-20T14:38:35;3.65;;;2.80;;
54193;SDS011;40102;50.906;6.972;2023-05-20T14:41:01;3.72;;;2.80;;
54193;SDS011;40102;50.906;6.972;2023-05-20T14:43:26;3.63;;;2.67;;
54193;SDS011;40102;50.906;6.972;2023-05-20T14:45:51;4.57;;;2.47;;
54193;SDS011;40102;50.906;6.972;2023-05-20T14:48:17;5.88;;;2.88;;
54193;SDS011;40102;50.906;6.972;2023-05-20T14:50:42;3.63;;;3.05;;
54193;SDS011;40102;50.906;6.972;2023-05-20T14:53:07;3.03;;;2.72;;
54193;SDS011;40102;50.906;6.972;2023-05-20T14:55:33;3.42;;;2.53;;
54193;SDS011;40102;50.906;6.972;2023-05-20T14:57:58;4.20;;;2.80;;
54193;SDS011;40102;50.906;6.972;2023-05-20T15:00:24;3.83;;;2.58;;